Elk, Pennsylvania
Current Conditions -  °F | °C
As of 4:15 AM on Sunday 26 Oct 2014 (Local Time) from KN38 Reporting Station
Overcast Overcast  
Wind Chill: 44°   Ceiling: 6000
Heat Index: 48°   Visibility: 10mi
Dew Point: 36°   Wind: 10mph
Humidity: 62%   Direction: 290°WNW
Pressure: 29.68"   Gusts: 20mph
Location:  41.6649°N, 77.5403°W
Report Text: KN38 260815Z AUTO 29009G17KT 10SM FEW036 SCT050 OVC060 09/02 A2968 RMK AO2
Loading
Personal Weather Stations






























Interactive Weather Map
Tropical Storm Tracking
New forecast layout! Learn more

10-Day Weather Forecast

Advertisements
Track Severe Weather on mobile